sensor_id;sensor_type;location;lat;lon;timestamp;P1;durP1;ratioP1;P2;durP2;ratioP2
25169;SDS011;13129;48.012;10.352;2022-07-24T03:32:24;15.38;;;13.98;;
25169;SDS011;13129;48.012;10.352;2022-07-24T03:34:50;15.43;;;13.93;;
25169;SDS011;13129;48.012;10.352;2022-07-24T03:37:16;15.82;;;14.43;;
25169;SDS011;13129;48.012;10.352;2022-07-24T03:39:41;14.93;;;13.48;;
25169;SDS011;13129;48.012;10.352;2022-07-24T03:42:07;14.93;;;13.52;;
25169;SDS011;13129;48.012;10.352;2022-07-24T03:44:32;14.88;;;12.68;;
25169;SDS011;13129;48.012;10.352;2022-07-24T03:46:58;13.05;;;11.75;;
25169;SDS011;13129;48.012;10.352;2022-07-24T03:49:24;14.45;;;13.00;;
25169;SDS011;13129;48.012;10.352;2022-07-24T03:51:49;12.77;;;11.57;;
25169;SDS011;13129;48.012;10.352;2022-07-24T03:54:15;11.70;;;10.73;;
25169;SDS011;13129;48.012;10.352;2022-07-24T03:56:41;14.57;;;13.07;;
25169;SDS011;13129;48.012;10.352;2022-07-24T03:59:07;13.40;;;12.10;;
25169;SDS011;13129;48.012;10.352;2022-07-24T04:01:33;14.68;;;13.30;;
25169;SDS011;13129;48.012;10.352;2022-07-24T04:03:58;15.05;;;13.38;;
25169;SDS011;13129;48.012;10.352;2022-07-24T04:06:29;14.00;;;12.60;;
25169;SDS011;13129;48.012;10.352;2022-07-24T04:08:56;14.85;;;13.35;;
25169;SDS011;13129;48.012;10.352;2022-07-24T04:11:22;14.90;;;13.48;;
25169;SDS011;13129;48.012;10.352;2022-07-24T04:13:48;14.25;;;12.95;;
25169;SDS011;13129;48.012;10.352;2022-07-24T04:16:14;15.32;;;13.75;;
25169;SDS011;13129;48.012;10.352;2022-07-24T04:18:39;14.27;;;12.88;;
25169;SDS011;13129;48.012;10.352;2022-07-24T04:21:05;15.00;;;13.55;;
25169;SDS011;13129;48.012;10.352;2022-07-24T04:23:31;19.77;;;15.40;;
25169;SDS011;13129;48.012;10.352;2022-07-24T04:25:56;15.75;;;14.23;;
25169;SDS011;13129;48.012;10.352;2022-07-24T04:28:22;15.98;;;13.25;;
25169;SDS011;13129;48.012;10.352;2022-07-24T04:30:48;15.98;;;14.38;;
25169;SDS011;13129;48.012;10.352;2022-07-24T04:33:13;15.50;;;14.00;;
25169;SDS011;13129;48.012;10.352;2022-07-24T04:35:39;15.10;;;13.55;;
25169;SDS011;13129;48.012;10.352;2022-07-24T04:38:05;14.05;;;12.60;;
25169;SDS011;13129;48.012;10.352;2022-07-24T04:40:31;14.70;;;13.30;;
25169;SDS011;13129;48.012;10.352;2022-07-24T04:42:56;13.18;;;11.82;;
25169;SDS011;13129;48.012;10.352;2022-07-24T04:45:22;11.98;;;10.88;;
25169;SDS011;13129;48.012;10.352;2022-07-24T04:47:48;13.15;;;11.95;;
25169;SDS011;13129;48.012;10.352;2022-07-24T04:50:13;12.80;;;11.18;;
25169;SDS011;13129;48.012;10.352;2022-07-24T04:52:39;16.52;;;11.45;;
25169;SDS011;13129;48.012;10.352;2022-07-24T04:55:05;18.17;;;15.30;;
25169;SDS011;13129;48.012;10.352;2022-07-24T04:57:31;17.58;;;15.40;;
25169;SDS011;13129;48.012;10.352;2022-07-24T04:59:57;17.42;;;15.80;;
25169;SDS011;13129;48.012;10.352;2022-07-24T05:02:22;16.92;;;15.18;;
25169;SDS011;13129;48.012;10.352;2022-07-24T05:04:48;16.77;;;15.07;;
25169;SDS011;13129;48.012;10.352;2022-07-24T05:07:13;17.27;;;15.35;;
25169;SDS011;13129;48.012;10.352;2022-07-24T05:09:39;17.70;;;15.55;;
25169;SDS011;13129;48.012;10.352;2022-07-24T05:12:05;17.42;;;15.70;;
25169;SDS011;13129;48.012;10.352;2022-07-24T05:14:30;16.10;;;14.45;;
25169;SDS011;13129;48.012;10.352;2022-07-24T05:16:56;16.73;;;15.10;;
25169;SDS011;13129;48.012;10.352;2022-07-24T05:19:22;17.08;;;15.38;;
25169;SDS011;13129;48.012;10.352;2022-07-24T05:21:47;16.38;;;14.68;;
25169;SDS011;13129;48.012;10.352;2022-07-24T05:24:13;16.90;;;14.65;;
25169;SDS011;13129;48.012;10.352;2022-07-24T05:26:38;15.23;;;13.63;;
25169;SDS011;13129;48.012;10.352;2022-07-24T05:29:05;16.83;;;13.60;;
25169;SDS011;13129;48.012;10.352;2022-07-24T05:31:31;13.98;;;12.68;;
25169;SDS011;13129;48.012;10.352;2022-07-24T05:33:57;13.73;;;12.52;;
25169;SDS011;13129;48.012;10.352;2022-07-24T05:36:23;13.75;;;12.45;;
25169;SDS011;13129;48.012;10.352;2022-07-24T05:38:49;12.43;;;11.27;;
25169;SDS011;13129;48.012;10.352;2022-07-24T05:41:15;13.18;;;11.95;;
25169;SDS011;13129;48.012;10.352;2022-07-24T05:43:41;13.25;;;11.60;;
25169;SDS011;13129;48.012;10.352;2022-07-24T05:46:07;14.00;;;12.30;;
25169;SDS011;13129;48.012;10.352;2022-07-24T05:48:32;13.80;;;12.55;;
25169;SDS011;13129;48.012;10.352;2022-07-24T05:50:58;13.18;;;12.07;;
25169;SDS011;13129;48.012;10.352;2022-07-24T05:53:24;13.05;;;11.85;;
25169;SDS011;13129;48.012;10.352;2022-07-24T05:55:50;14.25;;;12.77;;
25169;SDS011;13129;48.012;10.352;2022-07-24T05:58:16;14.88;;;13.30;;
25169;SDS011;13129;48.012;10.352;2022-07-24T06:00:43;13.75;;;12.55;;
25169;SDS011;13129;48.012;10.352;2022-07-24T06:03:09;14.15;;;12.85;;
25169;SDS011;13129;48.012;10.352;2022-07-24T06:05:35;14.30;;;13.00;;
25169;SDS011;13129;48.012;10.352;2022-07-24T06:08:00;13.57;;;12.38;;
25169;SDS011;13129;48.012;10.352;2022-07-24T06:10:26;14.55;;;13.07;;
25169;SDS011;13129;48.012;10.352;2022-07-24T06:12:52;15.20;;;12.93;;
25169;SDS011;13129;48.012;10.352;2022-07-24T06:15:18;14.32;;;13.13;;
25169;SDS011;13129;48.012;10.352;2022-07-24T06:17:43;13.55;;;12.45;;
25169;SDS011;13129;48.012;10.352;2022-07-24T06:20:10;13.75;;;12.30;;
25169;SDS011;13129;48.012;10.352;2022-07-24T06:22:37;14.48;;;13.35;;
25169;SDS011;13129;48.012;10.352;2022-07-24T06:25:07;14.50;;;12.43;;
25169;SDS011;13129;48.012;10.352;2022-07-24T06:27:33;13.95;;;12.52;;
25169;SDS011;13129;48.012;10.352;2022-07-24T06:29:59;13.15;;;12.00;;
25169;SDS011;13129;48.012;10.352;2022-07-24T06:32:24;13.98;;;12.68;;
25169;SDS011;13129;48.012;10.352;2022-07-24T06:34:50;13.32;;;12.27;;
25169;SDS011;13129;48.012;10.352;2022-07-24T06:37:16;12.85;;;11.65;;
25169;SDS011;13129;48.012;10.352;2022-07-24T06:39:41;13.55;;;12.43;;
25169;SDS011;13129;48.012;10.352;2022-07-24T06:42:07;12.82;;;11.73;;
25169;SDS011;13129;48.012;10.352;2022-07-24T06:44:33;12.73;;;11.60;;
25169;SDS011;13129;48.012;10.352;2022-07-24T06:47:01;13.75;;;12.40;;
25169;SDS011;13129;48.012;10.352;2022-07-24T06:49:26;13.30;;;12.30;;
25169;SDS011;13129;48.012;10.352;2022-07-24T06:51:53;14.32;;;13.23;;
25169;SDS011;13129;48.012;10.352;2022-07-24T06:54:18;13.73;;;12.63;;
25169;SDS011;13129;48.012;10.352;2022-07-24T06:56:44;13.48;;;12.38;;
25169;SDS011;13129;48.012;10.352;2022-07-24T06:59:09;13.40;;;12.40;;
25169;SDS011;13129;48.012;10.352;2022-07-24T07:01:35;13.63;;;12.63;;
25169;SDS011;13129;48.012;10.352;2022-07-24T07:04:01;14.40;;;13.20;;
25169;SDS011;13129;48.012;10.352;2022-07-24T07:06:26;14.32;;;13.02;;
25169;SDS011;13129;48.012;10.352;2022-07-24T07:08:52;13.70;;;12.52;;
25169;SDS011;13129;48.012;10.352;2022-07-24T07:11:17;12.85;;;11.95;;
25169;SDS011;13129;48.012;10.352;2022-07-24T07:13:43;15.30;;;14.00;;
25169;SDS011;13129;48.012;10.352;2022-07-24T07:16:09;14.10;;;12.98;;
25169;SDS011;13129;48.012;10.352;2022-07-24T07:18:34;13.85;;;12.85;;
25169;SDS011;13129;48.012;10.352;2022-07-24T07:21:01;14.38;;;13.27;;
25169;SDS011;13129;48.012;10.352;2022-07-24T07:23:27;14.40;;;13.30;;
25169;SDS011;13129;48.012;10.352;2022-07-24T07:25:53;14.70;;;13.52;;
25169;SDS011;13129;48.012;10.352;2022-07-24T07:28:19;14.25;;;13.05;;
25169;SDS011;13129;48.012;10.352;2022-07-24T07:30:45;14.43;;;12.95;;
25169;SDS011;13129;48.012;10.352;2022-07-24T07:33:11;13.23;;;12.32;;
25169;SDS011;13129;48.012;10.352;2022-07-24T07:35:36;14.10;;;12.95;;
25169;SDS011;13129;48.012;10.352;2022-07-24T07:38:02;14.35;;;13.27;;
25169;SDS011;13129;48.012;10.352;2022-07-24T07:40:28;13.13;;;12.23;;
25169;SDS011;13129;48.012;10.352;2022-07-24T07:42:53;15.10;;;14.05;;
25169;SDS011;13129;48.012;10.352;2022-07-24T07:45:19;14.35;;;13.23;;
25169;SDS011;13129;48.012;10.352;2022-07-24T07:47:45;13.80;;;12.57;;
25169;SDS011;13129;48.012;10.352;2022-07-24T07:50:11;14.77;;;13.38;;
25169;SDS011;13129;48.012;10.352;2022-07-24T07:52:37;14.88;;;13.68;;
25169;SDS011;13129;48.012;10.352;2022-07-24T07:55:03;14.15;;;13.13;;
25169;SDS011;13129;48.012;10.352;2022-07-24T07:57:29;13.75;;;12.75;;
25169;SDS011;13129;48.012;10.352;2022-07-24T07:59:55;14.23;;;12.90;;
25169;SDS011;13129;48.012;10.352;2022-07-24T08:02:21;14.35;;;13.25;;
25169;SDS011;13129;48.012;10.352;2022-07-24T08:04:46;14.25;;;13.25;;
25169;SDS011;13129;48.012;10.352;2022-07-24T08:07:12;13.85;;;12.85;;
25169;SDS011;13129;48.012;10.352;2022-07-24T08:09:38;12.80;;;11.80;;
25169;SDS011;13129;48.012;10.352;2022-07-24T08:12:04;13.27;;;12.27;;
25169;SDS011;13129;48.012;10.352;2022-07-24T08:14:30;13.48;;;12.30;;
25169;SDS011;13129;48.012;10.352;2022-07-24T08:16:55;12.60;;;11.57;;
25169;SDS011;13129;48.012;10.352;2022-07-24T08:19:21;12.23;;;11.23;;
25169;SDS011;13129;48.012;10.352;2022-07-24T08:21:47;11.57;;;10.68;;
25169;SDS011;13129;48.012;10.352;2022-07-24T08:24:13;11.80;;;10.70;;
25169;SDS011;13129;48.012;10.352;2022-07-24T08:26:45;11.75;;;10.85;;
25169;SDS011;13129;48.012;10.352;2022-07-24T08:29:14;10.55;;;9.65;;
25169;SDS011;13129;48.012;10.352;2022-07-24T08:31:40;11.25;;;10.35;;
25169;SDS011;13129;48.012;10.352;2022-07-24T08:34:06;10.45;;;9.75;;
25169;SDS011;13129;48.012;10.352;2022-07-24T08:36:32;11.20;;;10.43;;
25169;SDS011;13129;48.012;10.352;2022-07-24T08:38:58;11.48;;;10.50;;
25169;SDS011;13129;48.012;10.352;2022-07-24T08:41:27;10.98;;;10.15;;
25169;SDS011;13129;48.012;10.352;2022-07-24T08:43:58;10.52;;;9.82;;
25169;SDS011;13129;48.012;10.352;2022-07-24T08:46:24;10.02;;;9.32;;
25169;SDS011;13129;48.012;10.352;2022-07-24T08:48:52;10.07;;;9.18;;
25169;SDS011;13129;48.012;10.352;2022-07-24T08:51:18;11.90;;;11.00;;
25169;SDS011;13129;48.012;10.352;2022-07-24T08:53:46;11.02;;;10.13;;
25169;SDS011;13129;48.012;10.352;2022-07-24T08:56:14;11.77;;;10.87;;
25169;SDS011;13129;48.012;10.352;2022-07-24T08:58:42;11.05;;;10.32;;
25169;SDS011;13129;48.012;10.352;2022-07-24T09:01:08;10.43;;;9.68;;
25169;SDS011;13129;48.012;10.352;2022-07-24T09:03:40;10.27;;;9.57;;
25169;SDS011;13129;48.012;10.352;2022-07-24T09:06:08;10.38;;;9.50;;
25169;SDS011;13129;48.012;10.352;2022-07-24T09:08:35;11.70;;;10.80;;
25169;SDS011;13129;48.012;10.352;2022-07-24T09:11:03;10.65;;;9.85;;
25169;SDS011;13129;48.012;10.352;2022-07-24T09:13:30;10.25;;;9.55;;
25169;SDS011;13129;48.012;10.352;2022-07-24T09:16:19;11.32;;;10.52;;
25169;SDS011;13129;48.012;10.352;2022-07-24T09:18:47;10.45;;;9.48;;
25169;SDS011;13129;48.012;10.352;2022-07-24T09:21:14;10.02;;;9.25;;
25169;SDS011;13129;48.012;10.352;2022-07-24T09:23:41;10.80;;;10.00;;
25169;SDS011;13129;48.012;10.352;2022-07-24T09:26:07;10.80;;;10.00;;
25169;SDS011;13129;48.012;10.352;2022-07-24T09:28:50;11.35;;;10.55;;
25169;SDS011;13129;48.012;10.352;2022-07-24T09:31:17;10.68;;;9.88;;
25169;SDS011;13129;48.012;10.352;2022-07-24T09:33:43;11.02;;;10.23;;
25169;SDS011;13129;48.012;10.352;2022-07-24T09:36:16;11.10;;;10.30;;
25169;SDS011;13129;48.012;10.352;2022-07-24T09:38:46;10.93;;;10.23;;
25169;SDS011;13129;48.012;10.352;2022-07-24T09:41:18;10.88;;;10.02;;
25169;SDS011;13129;48.012;10.352;2022-07-24T09:43:45;11.40;;;10.50;;
25169;SDS011;13129;48.012;10.352;2022-07-24T09:46:22;11.10;;;10.30;;
25169;SDS011;13129;48.012;10.352;2022-07-24T09:48:51;12.00;;;10.63;;
25169;SDS011;13129;48.012;10.352;2022-07-24T09:51:20;11.43;;;10.63;;
25169;SDS011;13129;48.012;10.352;2022-07-24T09:53:51;12.10;;;11.20;;
25169;SDS011;13129;48.012;10.352;2022-07-24T09:56:23;11.18;;;10.32;;
25169;SDS011;13129;48.012;10.352;2022-07-24T09:58:51;10.82;;;10.02;;
25169;SDS011;13129;48.012;10.352;2022-07-24T10:01:22;11.25;;;10.35;;
25169;SDS011;13129;48.012;10.352;2022-07-24T10:03:49;11.60;;;10.80;;
25169;SDS011;13129;48.012;10.352;2022-07-24T10:06:17;11.02;;;10.32;;
25169;SDS011;13129;48.012;10.352;2022-07-24T10:08:46;10.93;;;10.13;;
25169;SDS011;13129;48.012;10.352;2022-07-24T10:11:13;12.43;;;11.43;;
25169;SDS011;13129;48.012;10.352;2022-07-24T10:13:39;11.38;;;10.57;;
25169;SDS011;13129;48.012;10.352;2022-07-24T10:18:52;12.45;;;11.43;;
25169;SDS011;13129;48.012;10.352;2022-07-24T10:21:26;10.95;;;10.13;;
25169;SDS011;13129;48.012;10.352;2022-07-24T10:28:54;13.10;;;12.10;;
25169;SDS011;13129;48.012;10.352;2022-07-24T10:31:25;12.43;;;11.43;;
25169;SDS011;13129;48.012;10.352;2022-07-24T10:33:52;12.73;;;11.65;;
25169;SDS011;13129;48.012;10.352;2022-07-24T10:36:29;12.35;;;11.45;;
25169;SDS011;13129;48.012;10.352;2022-07-24T10:39:22;13.50;;;12.50;;
25169;SDS011;13129;48.012;10.352;2022-07-24T10:42:04;12.95;;;11.95;;
25169;SDS011;13129;48.012;10.352;2022-07-24T10:44:31;12.38;;;11.25;;
25169;SDS011;13129;48.012;10.352;2022-07-24T10:53:43;13.25;;;12.15;;
25169;SDS011;13129;48.012;10.352;2022-07-24T11:01:39;12.57;;;11.60;;
25169;SDS011;13129;48.012;10.352;2022-07-24T11:06:44;12.95;;;11.85;;
25169;SDS011;13129;48.012;10.352;2022-07-24T11:09:17;12.10;;;11.05;;
25169;SDS011;13129;48.012;10.352;2022-07-24T11:14:17;13.55;;;12.27;;
25169;SDS011;13129;48.012;10.352;2022-07-24T11:16:43;12.02;;;11.05;;
25169;SDS011;13129;48.012;10.352;2022-07-24T11:21:35;12.27;;;11.18;;
25169;SDS011;13129;48.012;10.352;2022-07-24T11:32:10;11.45;;;10.43;;
25169;SDS011;13129;48.012;10.352;2022-07-24T11:34:39;11.10;;;10.10;;
25169;SDS011;13129;48.012;10.352;2022-07-24T11:37:09;11.73;;;10.73;;
25169;SDS011;13129;48.012;10.352;2022-07-24T11:39:35;12.05;;;11.05;;
25169;SDS011;13129;48.012;10.352;2022-07-24T11:42:07;13.32;;;10.77;;
25169;SDS011;13129;48.012;10.352;2022-07-24T11:44:37;12.05;;;11.13;;
25169;SDS011;13129;48.012;10.352;2022-07-24T11:47:09;12.20;;;11.10;;
25169;SDS011;13129;48.012;10.352;2022-07-24T11:52:14;12.27;;;11.30;;
25169;SDS011;13129;48.012;10.352;2022-07-24T11:54:42;12.10;;;11.07;;
25169;SDS011;13129;48.012;10.352;2022-07-24T11:57:20;11.20;;;10.20;;
25169;SDS011;13129;48.012;10.352;2022-07-24T11:59:48;12.20;;;11.30;;
25169;SDS011;13129;48.012;10.352;2022-07-24T12:02:15;11.85;;;10.75;;
25169;SDS011;13129;48.012;10.352;2022-07-24T12:04:41;10.48;;;9.48;;
25169;SDS011;13129;48.012;10.352;2022-07-24T12:07:08;11.02;;;10.02;;
25169;SDS011;13129;48.012;10.352;2022-07-24T12:09:49;11.10;;;10.10;;
25169;SDS011;13129;48.012;10.352;2022-07-24T12:12:19;10.73;;;9.80;;
25169;SDS011;13129;48.012;10.352;2022-07-24T12:14:50;10.65;;;9.68;;
25169;SDS011;13129;48.012;10.352;2022-07-24T12:17:17;11.40;;;10.40;;
25169;SDS011;13129;48.012;10.352;2022-07-24T12:19:50;10.30;;;9.35;;
25169;SDS011;13129;48.012;10.352;2022-07-24T12:22:17;9.65;;;8.85;;
25169;SDS011;13129;48.012;10.352;2022-07-24T12:24:43;10.95;;;10.05;;
25169;SDS011;13129;48.012;10.352;2022-07-24T12:27:09;10.15;;;9.25;;
25169;SDS011;13129;48.012;10.352;2022-07-24T12:29:41;10.15;;;9.35;;
25169;SDS011;13129;48.012;10.352;2022-07-24T12:32:12;11.32;;;10.20;;
25169;SDS011;13129;48.012;10.352;2022-07-24T12:34:46;10.10;;;9.30;;
25169;SDS011;13129;48.012;10.352;2022-07-24T12:37:20;11.00;;;10.00;;
25169;SDS011;13129;48.012;10.352;2022-07-24T12:39:47;10.73;;;9.80;;
25169;SDS011;13129;48.012;10.352;2022-07-24T12:42:13;10.70;;;9.82;;
25169;SDS011;13129;48.012;10.352;2022-07-24T12:44:40;10.40;;;9.50;;
25169;SDS011;13129;48.012;10.352;2022-07-24T12:47:07;10.60;;;9.75;;
25169;SDS011;13129;48.012;10.352;2022-07-24T12:49:43;10.68;;;9.80;;
25169;SDS011;13129;48.012;10.352;2022-07-24T12:52:20;9.52;;;8.73;;
25169;SDS011;13129;48.012;10.352;2022-07-24T12:54:50;9.45;;;8.65;;
25169;SDS011;13129;48.012;10.352;2022-07-24T12:57:19;9.32;;;8.48;;
25169;SDS011;13129;48.012;10.352;2022-07-24T12:59:47;9.32;;;8.63;;
25169;SDS011;13129;48.012;10.352;2022-07-24T13:02:15;9.95;;;9.15;;
25169;SDS011;13129;48.012;10.352;2022-07-24T13:04:50;9.57;;;8.88;;
25169;SDS011;13129;48.012;10.352;2022-07-24T13:07:21;10.43;;;9.63;;
25169;SDS011;13129;48.012;10.352;2022-07-24T13:09:47;9.95;;;8.98;;
25169;SDS011;13129;48.012;10.352;2022-07-24T13:12:14;9.82;;;9.10;;
25169;SDS011;13129;48.012;10.352;2022-07-24T13:14:40;10.43;;;9.48;;
25169;SDS011;13129;48.012;10.352;2022-07-24T13:17:10;9.82;;;9.05;;
25169;SDS011;13129;48.012;10.352;2022-07-24T13:19:44;11.50;;;10.25;;
25169;SDS011;13129;48.012;10.352;2022-07-24T13:22:10;10.57;;;9.68;;
25169;SDS011;13129;48.012;10.352;2022-07-24T13:24:36;10.18;;;9.27;;
25169;SDS011;13129;48.012;10.352;2022-07-24T13:27:03;10.18;;;9.27;;
25169;SDS011;13129;48.012;10.352;2022-07-24T13:29:30;10.00;;;9.20;;
25169;SDS011;13129;48.012;10.352;2022-07-24T13:31:56;11.15;;;10.15;;
25169;SDS011;13129;48.012;10.352;2022-07-24T13:34:22;10.05;;;9.20;;
25169;SDS011;13129;48.012;10.352;2022-07-24T13:36:48;10.75;;;9.80;;
25169;SDS011;13129;48.012;10.352;2022-07-24T13:39:15;10.60;;;9.80;;
25169;SDS011;13129;48.012;10.352;2022-07-24T13:41:41;10.50;;;9.48;;
25169;SDS011;13129;48.012;10.352;2022-07-24T13:44:08;10.45;;;9.45;;
25169;SDS011;13129;48.012;10.352;2022-07-24T13:46:33;10.35;;;9.55;;
25169;SDS011;13129;48.012;10.352;2022-07-24T13:49:00;11.05;;;10.05;;
25169;SDS011;13129;48.012;10.352;2022-07-24T13:51:27;10.30;;;9.43;;
25169;SDS011;13129;48.012;10.352;2022-07-24T13:53:53;11.15;;;10.18;;
25169;SDS011;13129;48.012;10.352;2022-07-24T13:56:19;10.35;;;9.55;;
25169;SDS011;13129;48.012;10.352;2022-07-24T13:58:47;10.30;;;9.32;;
25169;SDS011;13129;48.012;10.352;2022-07-24T14:01:14;10.93;;;9.93;;
25169;SDS011;13129;48.012;10.352;2022-07-24T14:03:42;9.07;;;8.32;;
25169;SDS011;13129;48.012;10.352;2022-07-24T14:06:08;9.75;;;8.88;;
25169;SDS011;13129;48.012;10.352;2022-07-24T14:08:35;10.10;;;9.25;;
25169;SDS011;13129;48.012;10.352;2022-07-24T14:11:01;10.82;;;9.93;;
25169;SDS011;13129;48.012;10.352;2022-07-24T14:13:27;9.85;;;9.07;;
25169;SDS011;13129;48.012;10.352;2022-07-24T14:15:53;10.60;;;9.75;;
25169;SDS011;13129;48.012;10.352;2022-07-24T14:18:19;10.68;;;9.77;;
25169;SDS011;13129;48.012;10.352;2022-07-24T14:20:45;10.27;;;9.27;;
25169;SDS011;13129;48.012;10.352;2022-07-24T14:23:11;10.68;;;9.77;;
25169;SDS011;13129;48.012;10.352;2022-07-24T14:25:38;9.63;;;8.82;;
25169;SDS011;13129;48.012;10.352;2022-07-24T14:28:06;9.50;;;8.65;;
25169;SDS011;13129;48.012;10.352;2022-07-24T14:30:32;9.05;;;8.38;;
25169;SDS011;13129;48.012;10.352;2022-07-24T14:32:58;9.43;;;8.60;;
25169;SDS011;13129;48.012;10.352;2022-07-24T14:35:24;9.82;;;8.93;;
25169;SDS011;13129;48.012;10.352;2022-07-24T14:37:49;10.13;;;9.35;;
25169;SDS011;13129;48.012;10.352;2022-07-24T14:40:15;9.73;;;9.02;;
25169;SDS011;13129;48.012;10.352;2022-07-24T14:42:41;9.98;;;9.18;;
25169;SDS011;13129;48.012;10.352;2022-07-24T14:45:07;10.23;;;9.35;;
25169;SDS011;13129;48.012;10.352;2022-07-24T14:47:33;9.60;;;8.80;;
25169;SDS011;13129;48.012;10.352;2022-07-24T14:49:59;10.52;;;9.63;;
25169;SDS011;13129;48.012;10.352;2022-07-24T14:52:24;10.07;;;9.20;;
25169;SDS011;13129;48.012;10.352;2022-07-24T14:54:50;9.48;;;8.60;;
25169;SDS011;13129;48.012;10.352;2022-07-24T14:57:16;10.68;;;9.70;;
25169;SDS011;13129;48.012;10.352;2022-07-24T14:59:42;10.90;;;9.82;;
25169;SDS011;13129;48.012;10.352;2022-07-24T15:02:08;10.18;;;9.38;;
25169;SDS011;13129;48.012;10.352;2022-07-24T15:04:34;9.85;;;9.02;;
25169;SDS011;13129;48.012;10.352;2022-07-24T15:07:01;9.60;;;8.80;;
25169;SDS011;13129;48.012;10.352;2022-07-24T15:09:29;9.90;;;9.10;;
25169;SDS011;13129;48.012;10.352;2022-07-24T15:11:56;9.98;;;9.07;;
25169;SDS011;13129;48.012;10.352;2022-07-24T15:14:22;10.25;;;9.45;;
25169;SDS011;13129;48.012;10.352;2022-07-24T15:16:48;10.57;;;9.50;;
25169;SDS011;13129;48.012;10.352;2022-07-24T15:19:14;10.20;;;9.40;;
25169;SDS011;13129;48.012;10.352;2022-07-24T15:21:40;10.82;;;9.85;;
25169;SDS011;13129;48.012;10.352;2022-07-24T15:24:05;10.57;;;9.68;;
25169;SDS011;13129;48.012;10.352;2022-07-24T15:26:32;11.02;;;10.07;;
25169;SDS011;13129;48.012;10.352;2022-07-24T15:28:58;9.80;;;8.82;;
25169;SDS011;13129;48.012;10.352;2022-07-24T15:31:24;10.32;;;9.52;;
25169;SDS011;13129;48.012;10.352;2022-07-24T15:33:50;10.18;;;9.27;;
25169;SDS011;13129;48.012;10.352;2022-07-24T15:36:15;10.43;;;9.63;;
25169;SDS011;13129;48.012;10.352;2022-07-24T15:38:41;10.05;;;9.13;;
25169;SDS011;13129;48.012;10.352;2022-07-24T15:41:08;10.80;;;9.98;;
25169;SDS011;13129;48.012;10.352;2022-07-24T15:43:34;10.23;;;9.32;;
25169;SDS011;13129;48.012;10.352;2022-07-24T15:46:01;11.38;;;10.30;;
25169;SDS011;13129;48.012;10.352;2022-07-24T15:48:27;10.95;;;9.88;;
25169;SDS011;13129;48.012;10.352;2022-07-24T15:50:52;10.68;;;9.77;;
25169;SDS011;13129;48.012;10.352;2022-07-24T15:53:18;10.05;;;9.13;;
25169;SDS011;13129;48.012;10.352;2022-07-24T15:55:44;10.18;;;9.30;;
25169;SDS011;13129;48.012;10.352;2022-07-24T15:58:10;10.30;;;9.40;;
25169;SDS011;13129;48.012;10.352;2022-07-24T16:00:36;11.63;;;10.43;;
25169;SDS011;13129;48.012;10.352;2022-07-24T16:03:02;10.93;;;9.93;;
25169;SDS011;13129;48.012;10.352;2022-07-24T16:05:28;10.85;;;9.85;;
25169;SDS011;13129;48.012;10.352;2022-07-24T16:07:55;10.30;;;9.50;;
25169;SDS011;13129;48.012;10.352;2022-07-24T16:10:21;10.82;;;9.85;;
25169;SDS011;13129;48.012;10.352;2022-07-24T16:12:47;10.88;;;10.02;;
25169;SDS011;13129;48.012;10.352;2022-07-24T16:15:13;10.45;;;9.55;;
25169;SDS011;13129;48.012;10.352;2022-07-24T16:17:40;10.60;;;9.80;;
25169;SDS011;13129;48.012;10.352;2022-07-24T16:20:07;11.18;;;10.27;;
25169;SDS011;13129;48.012;10.352;2022-07-24T16:22:34;9.77;;;9.07;;
25169;SDS011;13129;48.012;10.352;2022-07-24T16:25:01;11.38;;;9.85;;
25169;SDS011;13129;48.012;10.352;2022-07-24T16:27:28;10.13;;;9.32;;
25169;SDS011;13129;48.012;10.352;2022-07-24T16:29:54;11.13;;;10.20;;
25169;SDS011;13129;48.012;10.352;2022-07-24T16:32:20;10.65;;;9.52;;
25169;SDS011;13129;48.012;10.352;2022-07-24T16:34:46;11.90;;;10.80;;
25169;SDS011;13129;48.012;10.352;2022-07-24T16:37:12;11.30;;;10.40;;
25169;SDS011;13129;48.012;10.352;2022-07-24T16:39:38;10.75;;;9.82;;
25169;SDS011;13129;48.012;10.352;2022-07-24T16:42:03;11.73;;;10.60;;
25169;SDS011;13129;48.012;10.352;2022-07-24T16:44:29;11.27;;;10.30;;
25169;SDS011;13129;48.012;10.352;2022-07-24T16:46:55;10.40;;;9.50;;
25169;SDS011;13129;48.012;10.352;2022-07-24T16:49:22;10.57;;;9.68;;
25169;SDS011;13129;48.012;10.352;2022-07-24T16:51:47;10.35;;;9.40;;
25169;SDS011;13129;48.012;10.352;2022-07-24T16:54:13;10.75;;;9.85;;
25169;SDS011;13129;48.012;10.352;2022-07-24T16:56:39;10.73;;;9.82;;
25169;SDS011;13129;48.012;10.352;2022-07-24T16:59:05;11.15;;;10.15;;
25169;SDS011;13129;48.012;10.352;2022-07-24T17:01:32;10.50;;;9.57;;
25169;SDS011;13129;48.012;10.352;2022-07-24T17:04:00;12.10;;;10.93;;
25169;SDS011;13129;48.012;10.352;2022-07-24T17:06:26;11.88;;;10.73;;
25169;SDS011;13129;48.012;10.352;2022-07-24T17:08:52;11.32;;;10.13;;
25169;SDS011;13129;48.012;10.352;2022-07-24T17:11:18;10.80;;;9.80;;
25169;SDS011;13129;48.012;10.352;2022-07-24T17:13:43;11.65;;;10.45;;
25169;SDS011;13129;48.012;10.352;2022-07-24T17:16:09;11.55;;;10.45;;
25169;SDS011;13129;48.012;10.352;2022-07-24T17:18:35;10.75;;;9.73;;
25169;SDS011;13129;48.012;10.352;2022-07-24T17:21:01;11.23;;;10.30;;
25169;SDS011;13129;48.012;10.352;2022-07-24T17:23:27;10.85;;;9.95;;
25169;SDS011;13129;48.012;10.352;2022-07-24T17:25:52;11.60;;;10.50;;
25169;SDS011;13129;48.012;10.352;2022-07-24T17:28:18;11.68;;;10.27;;
25169;SDS011;13129;48.012;10.352;2022-07-24T17:30:44;10.98;;;10.18;;
25169;SDS011;13129;48.012;10.352;2022-07-24T17:33:10;11.10;;;10.07;;
25169;SDS011;13129;48.012;10.352;2022-07-24T17:35:36;11.07;;;10.07;;
25169;SDS011;13129;48.012;10.352;2022-07-24T17:38:03;10.77;;;9.88;;
25169;SDS011;13129;48.012;10.352;2022-07-24T17:40:28;10.52;;;9.73;;
25169;SDS011;13129;48.012;10.352;2022-07-24T17:42:54;10.40;;;9.50;;
25169;SDS011;13129;48.012;10.352;2022-07-24T17:45:21;11.35;;;10.25;;
25169;SDS011;13129;48.012;10.352;2022-07-24T17:47:47;11.32;;;10.25;;
25169;SDS011;13129;48.012;10.352;2022-07-24T17:50:13;11.50;;;10.35;;
25169;SDS011;13129;48.012;10.352;2022-07-24T17:52:39;10.48;;;9.63;;
25169;SDS011;13129;48.012;10.352;2022-07-24T17:55:06;11.43;;;10.32;;
25169;SDS011;13129;48.012;10.352;2022-07-24T17:57:32;10.70;;;9.70;;
25169;SDS011;13129;48.012;10.352;2022-07-24T17:59:58;10.50;;;9.70;;
25169;SDS011;13129;48.012;10.352;2022-07-24T18:02:50;10.75;;;9.82;;
25169;SDS011;13129;48.012;10.352;2022-07-24T18:05:16;11.27;;;10.27;;
25169;SDS011;13129;48.012;10.352;2022-07-24T18:07:41;10.10;;;9.27;;
25169;SDS011;13129;48.012;10.352;2022-07-24T18:10:09;11.45;;;10.38;;
25169;SDS011;13129;48.012;10.352;2022-07-24T18:12:37;11.05;;;9.95;;
25169;SDS011;13129;48.012;10.352;2022-07-24T18:15:04;11.60;;;10.52;;
25169;SDS011;13129;48.012;10.352;2022-07-24T18:17:30;11.43;;;10.43;;
25169;SDS011;13129;48.012;10.352;2022-07-24T18:19:55;10.85;;;9.95;;
25169;SDS011;13129;48.012;10.352;2022-07-24T18:22:21;11.00;;;10.02;;